Time;durP1;ratioP1;P1;durP2;ratioP2;P2;SDS_P1;SDS_P2;PMS_P1;PMS_P2;Temp;Humidity;BMP_temperature;BMP_pressure;BME280_temperature;BME280_humidity;BME280_pressure;Samples;Min_cycle;Max_cycle;Signal;HPM_P1;HPM_P2
2022/06/13 00:02:04;;;;;;;;;1.33;1.33;;;;;;;;5062169;28;46176;-72
2022/06/13 00:04:29;;;;;;;;;3.67;1.00;;;;;;;;5065865;27;45518;-72
2022/06/13 00:06:54;;;;;;;;;1.33;1.00;;;;;;;;5061130;28;45399;-72
2022/06/13 00:09:19;;;;;;;;;1.00;1.00;;;;;;;;5084438;27;45301;-72
2022/06/13 00:11:45;;;;;;;;;2.67;2.00;;;;;;;;5069445;28;45524;-72
2022/06/13 00:14:10;;;;;;;;;2.67;1.67;;;;;;;;5068615;27;45540;-72
2022/06/13 00:16:35;;;;;;;;;1.33;1.33;;;;;;;;5064867;28;45386;-71
2022/06/13 00:19:01;;;;;;;;;4.00;1.33;;;;;;;;5064843;28;45265;-71
2022/06/13 00:21:28;;;;;;;;;2.00;2.00;;;;;;;;5074454;27;46984;-72
2022/06/13 00:23:55;;;;;;;;;2.33;1.00;;;;;;;;5074107;28;45368;-72
2022/06/13 00:26:21;;;;;;;;;1.00;0.67;;;;;;;;5071345;27;45425;-72
2022/06/13 00:28:47;;;;;;;;;2.67;1.33;;;;;;;;5073662;27;45440;-72
2022/06/13 00:31:13;;;;;;;;;3.00;2.00;;;;;;;;5075002;27;45451;-72
2022/06/13 00:33:38;;;;;;;;;2.33;2.33;;;;;;;;5080678;27;45468;-72
2022/06/13 00:36:03;;;;;;;;;1.00;1.00;;;;;;;;5074514;28;45267;-72
2022/06/13 00:38:28;;;;;;;;;1.33;1.00;;;;;;;;5072159;28;45319;-72
2022/06/13 00:40:54;;;;;;;;;1.67;1.67;;;;;;;;5069394;28;45414;-72
2022/06/13 00:43:19;;;;;;;;;1.00;1.00;;;;;;;;5069806;27;45414;-71
2022/06/13 00:45:44;;;;;;;;;1.00;1.00;;;;;;;;5090403;27;45457;-72
2022/06/13 00:48:14;;;;;;;;;1.00;1.00;;;;;;;;5074256;27;45375;-71
2022/06/13 00:50:48;;;;;;;;;1.00;1.00;;;;;;;;5070683;27;47107;-72
2022/06/13 00:53:19;;;;;;;;;1.00;1.00;;;;;;;;5066811;27;45544;-72
2022/06/13 00:55:56;;;;;;;;;1.00;1.00;;;;;;;;5071562;27;46181;-71
2022/06/13 00:58:22;;;;;;;;;2.67;2.67;;;;;;;;5071466;28;45541;-71
2022/06/13 01:00:50;;;;;;;;;1.00;1.00;;;;;;;;5076593;27;45352;-72
2022/06/13 01:03:15;;;;;;;;;1.67;1.67;;;;;;;;5071092;28;45394;-72
2022/06/13 01:05:43;;;;;;;;;0.00;0.00;;;;;;;;5065997;28;45415;-72
2022/06/13 01:08:10;;;;;;;;;1.00;1.00;;;;;;;;5076793;27;45415;-71
2022/06/13 01:13:22;;;;;;;;;2.00;2.00;;;;;;;;5073598;27;45504;-72
2022/06/13 01:16:03;;;;;;;;;2.00;1.00;;;;;;;;5076172;27;45519;-72
2022/06/13 01:18:28;;;;;;;;;1.00;1.00;;;;;;;;5065412;28;48906;-71
2022/06/13 01:21:02;;;;;;;;;2.00;2.00;;;;;;;;5068088;28;46125;-72
2022/06/13 01:23:27;;;;;;;;;1.00;1.00;;;;;;;;5064287;28;45548;-72
2022/06/13 01:26:04;;;;;;;;;2.67;1.00;;;;;;;;5073108;27;45556;-71
2022/06/13 01:28:29;;;;;;;;;1.00;1.00;;;;;;;;5071042;28;45294;-72
2022/06/13 01:31:08;;;;;;;;;1.00;1.00;;;;;;;;5077671;27;45426;-72
2022/06/13 01:33:46;;;;;;;;;5.00;2.00;;;;;;;;5066692;28;45364;-71
2022/06/13 01:36:14;;;;;;;;;2.00;2.00;;;;;;;;5073657;28;45454;-72
2022/06/13 01:38:54;;;;;;;;;0.00;0.00;;;;;;;;5070888;27;45566;-71
2022/06/13 01:41:25;;;;;;;;;1.00;1.00;;;;;;;;5075517;27;45541;-72
2022/06/13 01:43:53;;;;;;;;;0.67;0.67;;;;;;;;5070623;28;45386;-72
2022/06/13 01:46:24;;;;;;;;;1.00;1.00;;;;;;;;5075146;27;45419;-72
2022/06/13 01:48:55;;;;;;;;;4.67;3.00;;;;;;;;5075901;27;45393;-72
2022/06/13 01:51:24;;;;;;;;;1.00;1.00;;;;;;;;5068190;28;47194;-72
2022/06/13 01:53:54;;;;;;;;;1.00;1.00;;;;;;;;5069593;28;45415;-71
2022/06/13 01:56:22;;;;;;;;;2.00;2.00;;;;;;;;5073435;27;45369;-72
2022/06/13 01:58:54;;;;;;;;;1.00;1.00;;;;;;;;5066155;28;45429;-72
2022/06/13 02:01:37;;;;;;;;;4.00;1.00;;;;;;;;5071995;27;47005;-72
2022/06/13 02:04:12;;;;;;;;;1.67;1.67;;;;;;;;5067471;27;45514;-72
2022/06/13 02:06:41;;;;;;;;;2.00;1.00;;;;;;;;5075064;27;45449;-71
2022/06/13 02:09:28;;;;;;;;;3.33;3.33;;;;;;;;5076099;27;45465;-72
2022/06/13 02:11:54;;;;;;;;;1.00;1.00;;;;;;;;5073744;27;46953;-72
2022/06/13 02:14:38;;;;;;;;;1.00;1.00;;;;;;;;5075334;27;45418;-72
2022/06/13 02:17:10;;;;;;;;;2.00;2.00;;;;;;;;5079240;27;45319;-71
2022/06/13 02:19:40;;;;;;;;;2.00;2.00;;;;;;;;5073074;27;45364;-72
2022/06/13 02:22:14;;;;;;;;;2.00;2.00;;;;;;;;5076609;27;46085;-72
2022/06/13 02:24:42;;;;;;;;;0.33;0.33;;;;;;;;5076322;27;45435;-71
2022/06/13 02:27:10;;;;;;;;;1.33;1.00;;;;;;;;5075865;27;45624;-72
2022/06/13 02:29:40;;;;;;;;;1.33;1.33;;;;;;;;5065975;27;45809;-71
2022/06/13 02:32:08;;;;;;;;;1.00;1.00;;;;;;;;5070049;27;47203;-71
2022/06/13 02:34:33;;;;;;;;;4.00;1.00;;;;;;;;5069415;28;45461;-71
2022/06/13 02:36:58;;;;;;;;;2.00;1.00;;;;;;;;5072248;27;45746;-72
2022/06/13 02:39:31;;;;;;;;;1.67;1.67;;;;;;;;5069414;27;45276;-72
2022/06/13 02:42:00;;;;;;;;;1.00;1.00;;;;;;;;5062697;28;46883;-71
2022/06/13 02:44:48;;;;;;;;;1.00;1.00;;;;;;;;5074078;27;45439;-72
2022/06/13 02:47:19;;;;;;;;;1.00;1.00;;;;;;;;5063182;28;45442;-72
2022/06/13 02:49:50;;;;;;;;;0.67;0.67;;;;;;;;5072600;27;45437;-72
2022/06/13 02:52:23;;;;;;;;;2.33;0.00;;;;;;;;5075376;27;46041;-71
2022/06/13 02:54:54;;;;;;;;;2.67;1.67;;;;;;;;5070964;27;45466;-72
2022/06/13 02:57:29;;;;;;;;;1.00;1.00;;;;;;;;5075458;27;45366;-72
2022/06/13 02:59:57;;;;;;;;;3.00;1.67;;;;;;;;5069434;27;45458;-72
2022/06/13 03:02:27;;;;;;;;;1.00;1.00;;;;;;;;5069106;28;46002;-71
2022/06/13 03:04:58;;;;;;;;;1.67;1.67;;;;;;;;5068105;27;45520;-72
2022/06/13 03:07:30;;;;;;;;;0.33;0.33;;;;;;;;5071495;27;45288;-71
2022/06/13 03:10:05;;;;;;;;;0.00;0.00;;;;;;;;5073904;28;45672;-71
2022/06/13 03:12:33;;;;;;;;;3.00;1.00;;;;;;;;5065047;28;46151;-72
2022/06/13 03:15:01;;;;;;;;;2.00;2.00;;;;;;;;5082827;27;45488;-72
2022/06/13 03:17:32;;;;;;;;;0.00;0.00;;;;;;;;5073971;27;45317;-72
2022/06/13 03:20:19;;;;;;;;;2.00;1.67;;;;;;;;5065402;27;45552;-71
2022/06/13 03:22:44;;;;;;;;;2.33;1.00;;;;;;;;5065508;28;45551;-72
2022/06/13 03:25:14;;;;;;;;;2.00;1.00;;;;;;;;5067491;27;45380;-71
2022/06/13 03:27:54;;;;;;;;;1.67;1.00;;;;;;;;5073570;27;45489;-72
2022/06/13 03:30:22;;;;;;;;;1.00;1.00;;;;;;;;5076227;27;45518;-71
2022/06/13 03:35:43;;;;;;;;;4.00;1.00;;;;;;;;5067186;28;45287;-71
2022/06/13 03:38:11;;;;;;;;;1.00;1.00;;;;;;;;5072974;27;45493;-71
2022/06/13 03:40:38;;;;;;;;;2.00;2.00;;;;;;;;5065885;27;45347;-72
2022/06/13 03:43:08;;;;;;;;;1.00;1.00;;;;;;;;5067147;27;46002;-72
2022/06/13 03:45:46;;;;;;;;;1.00;1.00;;;;;;;;5068267;27;45508;-72
2022/06/13 03:48:16;;;;;;;;;1.00;0.33;;;;;;;;5068909;27;45418;-72
2022/06/13 03:50:44;;;;;;;;;3.00;1.67;;;;;;;;5069353;28;45314;-72
2022/06/13 03:53:16;;;;;;;;;2.00;1.00;;;;;;;;5074267;27;46507;-72
2022/06/13 03:55:46;;;;;;;;;3.00;1.33;;;;;;;;5067943;27;46607;-72
2022/06/13 03:58:13;;;;;;;;;1.00;1.00;;;;;;;;5068012;28;45612;-72
2022/06/13 04:00:45;;;;;;;;;2.67;1.00;;;;;;;;5065420;27;45490;-71
2022/06/13 04:03:11;;;;;;;;;1.00;1.00;;;;;;;;5060939;28;45412;-72
2022/06/13 04:06:02;;;;;;;;;3.33;1.67;;;;;;;;5075348;27;45602;-71
2022/06/13 04:08:29;;;;;;;;;2.33;2.00;;;;;;;;5011826;28;45564;-72
2022/06/13 04:10:54;;;;;;;;;1.00;1.00;;;;;;;;5011639;28;45419;-72
2022/06/13 04:13:25;;;;;;;;;2.67;1.00;;;;;;;;5011578;28;45634;-72
2022/06/13 04:16:11;;;;;;;;;2.00;2.00;;;;;;;;5011218;28;45555;-72
2022/06/13 04:18:53;;;;;;;;;0.67;0.67;;;;;;;;5010739;28;45420;-72
2022/06/13 04:21:29;;;;;;;;;1.00;1.00;;;;;;;;5009249;28;45457;-72
2022/06/13 04:24:04;;;;;;;;;1.33;1.33;;;;;;;;5012229;28;45334;-72
2022/06/13 04:26:35;;;;;;;;;1.00;1.00;;;;;;;;5013109;28;45442;-72
2022/06/13 04:29:14;;;;;;;;;1.00;1.00;;;;;;;;5011536;28;45326;-72
2022/06/13 04:31:40;;;;;;;;;1.00;1.00;;;;;;;;5010449;28;45379;-71
2022/06/13 04:34:17;;;;;;;;;2.00;2.00;;;;;;;;5010154;28;47360;-71
2022/06/13 04:36:43;;;;;;;;;2.00;2.00;;;;;;;;5016910;28;45523;-72
2022/06/13 04:39:10;;;;;;;;;1.00;1.00;;;;;;;;5011909;28;45374;-72
2022/06/13 04:41:38;;;;;;;;;1.67;1.33;;;;;;;;5011990;28;45584;-71
2022/06/13 04:44:05;;;;;;;;;2.00;2.00;;;;;;;;5010206;28;45707;-72
2022/06/13 04:46:33;;;;;;;;;2.00;2.00;;;;;;;;5059431;28;45585;-72
2022/06/13 04:49:01;;;;;;;;;1.67;1.67;;;;;;;;5081676;27;45510;-72
2022/06/13 04:51:30;;;;;;;;;3.00;1.33;;;;;;;;5073179;28;45394;-72
2022/06/13 04:54:04;;;;;;;;;3.33;1.00;;;;;;;;5069385;27;46322;-72
2022/06/13 04:56:30;;;;;;;;;1.00;1.00;;;;;;;;5070389;27;45621;-71
2022/06/13 04:58:57;;;;;;;;;1.67;0.67;;;;;;;;5072193;27;45600;-72
2022/06/13 05:01:30;;;;;;;;;2.00;2.00;;;;;;;;5079709;27;45442;-72
2022/06/13 05:03:57;;;;;;;;;2.00;2.00;;;;;;;;5073065;27;45435;-72
2022/06/13 05:06:29;;;;;;;;;0.67;0.67;;;;;;;;5078518;27;45346;-72
2022/06/13 05:09:00;;;;;;;;;2.67;1.33;;;;;;;;5067549;28;45494;-71
2022/06/13 05:11:37;;;;;;;;;2.00;2.00;;;;;;;;5064899;28;45429;-72
2022/06/13 05:14:06;;;;;;;;;3.50;2.00;;;;;;;;5068444;28;46398;-72
2022/06/13 05:16:35;;;;;;;;;1.00;1.00;;;;;;;;5074633;27;45486;-72
2022/06/13 05:19:15;;;;;;;;;2.67;2.00;;;;;;;;5070154;28;45454;-72
2022/06/13 05:21:40;;;;;;;;;2.00;1.00;;;;;;;;5069386;27;45441;-71
2022/06/13 05:24:06;;;;;;;;;1.00;1.00;;;;;;;;5071669;27;46207;-72
2022/06/13 05:26:31;;;;;;;;;1.33;1.33;;;;;;;;5075324;27;45600;-71
2022/06/13 05:28:57;;;;;;;;;2.00;1.00;;;;;;;;5075725;27;45548;-71
2022/06/13 05:31:23;;;;;;;;;1.67;1.67;;;;;;;;5075538;27;45552;-72
2022/06/13 05:33:48;;;;;;;;;1.00;1.00;;;;;;;;5071822;27;46269;-72
2022/06/13 05:36:15;;;;;;;;;2.67;2.67;;;;;;;;5072817;27;45446;-71
2022/06/13 05:38:45;;;;;;;;;1.67;1.67;;;;;;;;5070302;28;45688;-73
2022/06/13 05:41:10;;;;;;;;;3.33;1.00;;;;;;;;5071620;27;45327;-76
2022/06/13 05:43:35;;;;;;;;;1.67;1.00;;;;;;;;5070251;28;46285;-71
2022/06/13 05:46:02;;;;;;;;;1.67;1.67;;;;;;;;5073634;27;45427;-72
2022/06/13 05:48:27;;;;;;;;;1.00;1.00;;;;;;;;5072118;27;45524;-72
2022/06/13 05:50:52;;;;;;;;;1.00;1.00;;;;;;;;5067419;27;45530;-71
2022/06/13 05:53:20;;;;;;;;;1.33;1.33;;;;;;;;5074290;27;45297;-73
2022/06/13 05:55:45;;;;;;;;;2.00;2.00;;;;;;;;5072935;27;45433;-76
2022/06/13 05:58:11;;;;;;;;;3.33;2.00;;;;;;;;5073569;27;45441;-75
2022/06/13 06:00:38;;;;;;;;;2.67;1.00;;;;;;;;5084782;27;45357;-74
2022/06/13 06:03:04;;;;;;;;;1.00;1.00;;;;;;;;5072014;27;45417;-76
2022/06/13 06:05:29;;;;;;;;;4.67;2.33;;;;;;;;5067321;27;45406;-69
2022/06/13 06:07:54;;;;;;;;;1.00;1.00;;;;;;;;5072127;27;45375;-71
2022/06/13 06:10:29;;;;;;;;;1.00;1.00;;;;;;;;5076251;27;45552;-71
2022/06/13 06:12:54;;;;;;;;;3.33;1.67;;;;;;;;5074388;27;46368;-71
2022/06/13 06:15:19;;;;;;;;;1.33;1.33;;;;;;;;5075976;27;45514;-71
2022/06/13 06:17:44;;;;;;;;;0.67;0.33;;;;;;;;5072567;27;45394;-70
2022/06/13 06:20:14;;;;;;;;;3.00;3.00;;;;;;;;5065597;27;45470;-70
2022/06/13 06:22:39;;;;;;;;;1.00;1.00;;;;;;;;5069003;28;46460;-70
2022/06/13 06:25:05;;;;;;;;;2.00;2.00;;;;;;;;5065214;27;45418;-72
2022/06/13 06:27:30;;;;;;;;;0.67;0.67;;;;;;;;5075607;27;45461;-71
2022/06/13 06:29:55;;;;;;;;;1.00;1.00;;;;;;;;5072756;27;45698;-71
2022/06/13 06:32:20;;;;;;;;;3.33;2.00;;;;;;;;5069385;27;46801;-73
2022/06/13 06:34:45;;;;;;;;;2.00;2.00;;;;;;;;5068385;27;45584;-73
2022/06/13 06:37:10;;;;;;;;;1.67;1.00;;;;;;;;5077670;27;45468;-71
2022/06/13 06:39:36;;;;;;;;;2.00;1.00;;;;;;;;5075444;27;45566;-72
2022/06/13 06:42:01;;;;;;;;;3.33;2.33;;;;;;;;5072495;27;45802;-72
2022/06/13 06:44:26;;;;;;;;;3.00;1.33;;;;;;;;5069944;27;45458;-72
2022/06/13 06:46:51;;;;;;;;;3.67;1.00;;;;;;;;5069846;28;45526;-72
2022/06/13 06:49:16;;;;;;;;;4.67;1.00;;;;;;;;5070948;27;45505;-72
2022/06/13 06:51:43;;;;;;;;;3.00;1.67;;;;;;;;5066406;28;46295;-72
2022/06/13 06:59:55;;;;;;;;;4.00;1.00;;;;;;;;5068679;27;45567;-72
2022/06/13 07:02:23;;;;;;;;;1.00;1.00;;;;;;;;5063316;27;47582;-72
2022/06/13 07:04:49;;;;;;;;;1.33;0.33;;;;;;;;5067984;27;45362;-72
2022/06/13 07:07:14;;;;;;;;;1.00;1.00;;;;;;;;5076727;27;45627;-72
2022/06/13 07:09:39;;;;;;;;;1.67;1.67;;;;;;;;5074805;27;45221;-72
2022/06/13 07:12:05;;;;;;;;;3.00;1.00;;;;;;;;5065051;27;46300;-72
2022/06/13 07:14:32;;;;;;;;;2.00;1.67;;;;;;;;5069350;28;45534;-72
2022/06/13 07:16:58;;;;;;;;;3.00;2.00;;;;;;;;5070687;27;45564;-72
2022/06/13 07:19:23;;;;;;;;;1.33;1.00;;;;;;;;5079655;27;45412;-72
2022/06/13 07:21:49;;;;;;;;;2.67;2.67;;;;;;;;5073619;27;45728;-72
2022/06/13 07:24:14;;;;;;;;;2.00;2.00;;;;;;;;5062089;27;45460;-72
2022/06/13 07:26:40;;;;;;;;;4.00;2.33;;;;;;;;5060902;27;45455;-72
2022/06/13 07:29:05;;;;;;;;;1.67;1.67;;;;;;;;5067858;27;45388;-72
2022/06/13 07:31:34;;;;;;;;;2.33;2.33;;;;;;;;5069013;28;45302;-72
2022/06/13 07:33:59;;;;;;;;;1.33;1.33;;;;;;;;5071398;28;45316;-72
2022/06/13 07:36:24;;;;;;;;;2.00;2.00;;;;;;;;5075222;27;45326;-72
2022/06/13 07:38:49;;;;;;;;;2.33;2.33;;;;;;;;5074848;28;45335;-72
2022/06/13 07:41:19;;;;;;;;;0.33;0.33;;;;;;;;5069945;27;45363;-72
2022/06/13 07:43:44;;;;;;;;;2.67;1.00;;;;;;;;5072086;28;45573;-72
2022/06/13 07:46:11;;;;;;;;;1.00;1.00;;;;;;;;5074174;27;45402;-72
2022/06/13 07:48:36;;;;;;;;;4.67;1.67;;;;;;;;5077923;27;46393;-72
2022/06/13 07:51:02;;;;;;;;;2.00;2.00;;;;;;;;5074129;28;45944;-72
2022/06/13 07:53:27;;;;;;;;;1.00;1.00;;;;;;;;5072164;27;45445;-72
2022/06/13 07:55:52;;;;;;;;;1.33;1.33;;;;;;;;5072022;27;45671;-72
2022/06/13 07:58:21;;;;;;;;;1.00;1.00;;;;;;;;5069384;27;45456;-72
2022/06/13 08:00:49;;;;;;;;;2.33;1.00;;;;;;;;5070023;27;46390;-72
2022/06/13 08:03:20;;;;;;;;;1.33;1.33;;;;;;;;5061615;28;45336;-72
2022/06/13 08:05:45;;;;;;;;;2.00;2.00;;;;;;;;5079534;27;45445;-72
2022/06/13 08:08:11;;;;;;;;;2.00;2.00;;;;;;;;5064467;27;45395;-72
2022/06/13 08:10:37;;;;;;;;;1.00;1.00;;;;;;;;5062179;28;46080;-72
2022/06/13 08:13:02;;;;;;;;;4.00;1.00;;;;;;;;5076899;27;45443;-72
2022/06/13 08:15:27;;;;;;;;;2.00;1.00;;;;;;;;5071581;27;45265;-72
2022/06/13 08:17:52;;;;;;;;;1.00;1.00;;;;;;;;5073067;27;45447;-72
2022/06/13 08:20:18;;;;;;;;;1.33;1.00;;;;;;;;5060003;28;46111;-71
2022/06/13 08:22:44;;;;;;;;;1.00;1.00;;;;;;;;5065910;28;45481;-72
2022/06/13 08:25:15;;;;;;;;;3.00;2.00;;;;;;;;5065785;27;45505;-72
2022/06/13 08:27:40;;;;;;;;;2.00;2.00;;;;;;;;5071486;27;45664;-72
2022/06/13 08:30:06;;;;;;;;;4.00;1.00;;;;;;;;5070535;28;46309;-72
2022/06/13 08:32:31;;;;;;;;;3.00;1.00;;;;;;;;5059762;28;45335;-72
2022/06/13 08:34:56;;;;;;;;;1.67;1.67;;;;;;;;5069139;28;45517;-72
2022/06/13 08:37:21;;;;;;;;;0.00;0.00;;;;;;;;5074711;28;45422;-71
2022/06/13 08:39:47;;;;;;;;;1.00;1.00;;;;;;;;5068732;28;45572;-72
2022/06/13 08:42:16;;;;;;;;;2.00;2.00;;;;;;;;5076608;27;45841;-72
2022/06/13 08:44:49;;;;;;;;;2.00;2.00;;;;;;;;5071896;27;46726;-72
2022/06/13 08:47:14;;;;;;;;;1.00;1.00;;;;;;;;5065001;28;45546;-72
2022/06/13 08:49:45;;;;;;;;;1.67;1.00;;;;;;;;5069352;27;45459;-72
2022/06/13 08:52:16;;;;;;;;;3.00;2.00;;;;;;;;5077112;27;45641;-72
2022/06/13 08:54:42;;;;;;;;;1.33;1.00;;;;;;;;5070838;27;45339;-72
2022/06/13 08:57:09;;;;;;;;;0.00;0.00;;;;;;;;5078061;27;45447;-72
2022/06/13 08:59:42;;;;;;;;;3.00;1.67;;;;;;;;5066770;27;46155;-72
2022/06/13 09:02:07;;;;;;;;;1.00;1.00;;;;;;;;5072426;28;45384;-72
2022/06/13 09:04:51;;;;;;;;;1.00;1.00;;;;;;;;5072370;28;45496;-72
2022/06/13 09:07:34;;;;;;;;;1.33;1.33;;;;;;;;5072843;28;45512;-72
2022/06/13 09:10:02;;;;;;;;;1.33;1.00;;;;;;;;5075824;27;45512;-72
2022/06/13 09:12:27;;;;;;;;;7.67;0.67;;;;;;;;5070799;27;45338;-72
2022/06/13 09:14:58;;;;;;;;;5.67;2.00;;;;;;;;5064696;27;45592;-72
2022/06/13 09:17:35;;;;;;;;;2.00;1.00;;;;;;;;5077042;27;45513;-72
2022/06/13 09:20:10;;;;;;;;;1.00;1.00;;;;;;;;5073817;27;46363;-72
2022/06/13 09:22:35;;;;;;;;;1.00;1.00;;;;;;;;5076150;27;45391;-72
2022/06/13 09:25:19;;;;;;;;;4.00;2.00;;;;;;;;5079418;27;45516;-72
2022/06/13 09:27:56;;;;;;;;;4.00;1.00;;;;;;;;5074364;27;45401;-72
2022/06/13 09:30:27;;;;;;;;;0.00;0.00;;;;;;;;5073294;27;47267;-72
2022/06/13 09:32:56;;;;;;;;;1.00;1.00;;;;;;;;5064452;27;45576;-72
2022/06/13 09:35:23;;;;;;;;;4.00;1.00;;;;;;;;5070222;27;45508;-72
2022/06/13 09:38:03;;;;;;;;;1.00;1.00;;;;;;;;5069918;27;45725;-72
2022/06/13 09:40:37;;;;;;;;;1.00;1.00;;;;;;;;5075162;27;45509;-72
2022/06/13 09:43:05;;;;;;;;;1.00;1.00;;;;;;;;5077789;27;45535;-72
2022/06/13 09:45:33;;;;;;;;;1.00;1.00;;;;;;;;5070180;27;45377;-72
2022/06/13 09:48:04;;;;;;;;;1.67;0.00;;;;;;;;5067442;28;45485;-72
2022/06/13 09:50:35;;;;;;;;;2.00;2.00;;;;;;;;5074403;27;46372;-72
2022/06/13 09:53:19;;;;;;;;;4.00;2.00;;;;;;;;5071833;27;45493;-72
2022/06/13 09:55:58;;;;;;;;;1.00;1.00;;;;;;;;5073384;27;45520;-72
2022/06/13 09:58:24;;;;;;;;;1.00;1.00;;;;;;;;5072735;28;45399;-72
2022/06/13 10:01:11;;;;;;;;;2.00;2.00;;;;;;;;5081442;27;46275;-72
2022/06/13 10:03:41;;;;;;;;;3.00;2.00;;;;;;;;5070022;27;45561;-72
2022/06/13 10:06:21;;;;;;;;;0.67;0.33;;;;;;;;5066932;28;45339;-72
2022/06/13 10:09:01;;;;;;;;;0.67;0.67;;;;;;;;5061990;28;45679;-72
2022/06/13 10:11:26;;;;;;;;;0.67;0.67;;;;;;;;5067845;28;46436;-72
2022/06/13 10:13:52;;;;;;;;;3.75;2.00;;;;;;;;5071584;27;45580;-72
2022/06/13 10:16:19;;;;;;;;;2.67;1.00;;;;;;;;5074123;27;45406;-72
2022/06/13 10:18:53;;;;;;;;;1.67;1.67;;;;;;;;5072594;27;45475;-72
2022/06/13 10:21:31;;;;;;;;;1.00;1.00;;;;;;;;5072573;28;47214;-72
2022/06/13 10:24:01;;;;;;;;;1.00;1.00;;;;;;;;5070626;27;45334;-72
2022/06/13 10:26:32;;;;;;;;;1.33;1.33;;;;;;;;5074557;27;45460;-72
2022/06/13 10:29:07;;;;;;;;;1.00;1.00;;;;;;;;5069801;28;45607;-72
2022/06/13 10:31:43;;;;;;;;;0.67;0.67;;;;;;;;5068193;28;47241;-72
2022/06/13 10:34:08;;;;;;;;;2.00;1.00;;;;;;;;5066774;28;45746;-72
2022/06/13 10:36:52;;;;;;;;;2.00;2.00;;;;;;;;5069938;28;45647;-72
2022/06/13 10:39:20;;;;;;;;;2.00;1.00;;;;;;;;5081560;27;45425;-72
2022/06/13 10:41:47;;;;;;;;;1.67;1.00;;;;;;;;5071127;27;45488;-71
2022/06/13 10:44:14;;;;;;;;;2.00;1.00;;;;;;;;5070008;27;45422;-72
2022/06/13 10:46:43;;;;;;;;;1.00;1.00;;;;;;;;5069813;28;45504;-72
2022/06/13 10:49:15;;;;;;;;;1.33;1.00;;;;;;;;5071438;27;45374;-72
2022/06/13 10:51:42;;;;;;;;;1.00;1.00;;;;;;;;5066648;27;46415;-72
2022/06/13 10:54:07;;;;;;;;;1.67;1.67;;;;;;;;5068067;28;45433;-72
2022/06/13 10:56:36;;;;;;;;;1.00;1.00;;;;;;;;5072980;27;45267;-72
2022/06/13 10:59:01;;;;;;;;;1.00;1.00;;;;;;;;5069382;28;45446;-72
2022/06/13 11:01:30;;;;;;;;;1.00;1.00;;;;;;;;5071717;27;46220;-72
2022/06/13 11:03:58;;;;;;;;;2.00;0.67;;;;;;;;5073753;27;45508;-72
2022/06/13 11:06:31;;;;;;;;;1.00;1.00;;;;;;;;5076472;27;45388;-72
2022/06/13 11:09:01;;;;;;;;;1.00;1.00;;;;;;;;5074960;27;45611;-72
2022/06/13 11:11:35;;;;;;;;;1.00;1.00;;;;;;;;5063816;27;46202;-72
2022/06/13 11:14:00;;;;;;;;;2.00;1.00;;;;;;;;5068109;28;45326;-72
2022/06/13 11:24:43;;;;;;;;;1.00;1.00;;;;;;;;5066997;28;45397;-72
2022/06/13 11:30:23;;;;;;;;;2.00;2.00;;;;;;;;5072517;27;45471;-72
2022/06/13 11:32:59;;;;;;;;;1.00;1.00;;;;;;;;5070494;28;46368;-72
2022/06/13 11:35:28;;;;;;;;;2.33;2.00;;;;;;;;5068335;27;45522;-73
2022/06/13 11:37:53;;;;;;;;;1.00;1.00;;;;;;;;5069428;27;45378;-72
2022/06/13 11:40:24;;;;;;;;;1.00;1.00;;;;;;;;5071309;28;45762;-72
2022/06/13 11:42:52;;;;;;;;;0.67;0.33;;;;;;;;5061970;28;45792;-72
2022/06/13 11:45:21;;;;;;;;;0.00;0.00;;;;;;;;5071727;27;45468;-72
2022/06/13 11:47:49;;;;;;;;;0.67;0.67;;;;;;;;5069459;28;45299;-72
2022/06/13 11:50:20;;;;;;;;;2.00;1.00;;;;;;;;5062407;27;45506;-72
2022/06/13 11:55:31;;;;;;;;;1.00;1.00;;;;;;;;5070668;27;46254;-72
2022/06/13 11:58:01;;;;;;;;;0.00;0.00;;;;;;;;5062699;27;45470;-72
2022/06/13 12:00:29;;;;;;;;;2.67;1.00;;;;;;;;5081842;27;45428;-72
2022/06/13 12:02:57;;;;;;;;;0.33;0.33;;;;;;;;5073007;27;46352;-72
2022/06/13 12:05:28;;;;;;;;;1.67;0.00;;;;;;;;5059873;28;45360;-72
2022/06/13 12:08:03;;;;;;;;;3.67;1.00;;;;;;;;5062769;27;45392;-72
2022/06/13 12:10:33;;;;;;;;;1.00;1.00;;;;;;;;5076748;27;45376;-72
2022/06/13 12:12:58;;;;;;;;;1.67;1.67;;;;;;;;5081735;27;47270;-72
2022/06/13 12:15:29;;;;;;;;;1.67;0.00;;;;;;;;5074996;27;45343;-72
2022/06/13 12:18:12;;;;;;;;;2.67;1.00;;;;;;;;5063145;27;45265;-72
2022/06/13 12:20:44;;;;;;;;;1.00;1.00;;;;;;;;5060835;28;45505;-72
2022/06/13 12:23:11;;;;;;;;;1.00;1.00;;;;;;;;5062856;28;47328;-72
2022/06/13 12:25:39;;;;;;;;;2.33;2.33;;;;;;;;5076789;27;45408;-73
2022/06/13 12:28:13;;;;;;;;;0.33;0.33;;;;;;;;5071369;28;45551;-72
2022/06/13 12:30:41;;;;;;;;;1.00;1.00;;;;;;;;5065363;27;45383;-72
2022/06/13 12:33:12;;;;;;;;;1.00;1.00;;;;;;;;5078814;27;47159;-72
2022/06/13 12:35:58;;;;;;;;;0.00;0.00;;;;;;;;5071672;27;45538;-72
2022/06/13 12:38:42;;;;;;;;;1.00;0.00;;;;;;;;5066663;27;45391;-72
2022/06/13 12:41:19;;;;;;;;;1.33;1.00;;;;;;;;5065995;27;45372;-72
2022/06/13 12:43:51;;;;;;;;;2.00;2.00;;;;;;;;5063746;28;47172;-72
2022/06/13 12:46:36;;;;;;;;;1.00;1.00;;;;;;;;5066031;27;45523;-72
2022/06/13 12:49:20;;;;;;;;;1.67;1.67;;;;;;;;5010252;28;45487;-72
2022/06/13 12:51:56;;;;;;;;;0.33;0.33;;;;;;;;5009966;28;45467;-72
2022/06/13 12:54:37;;;;;;;;;2.33;1.00;;;;;;;;5011439;28;47297;-72
2022/06/13 12:57:14;;;;;;;;;1.00;1.00;;;;;;;;4999732;28;45540;-72
2022/06/13 12:59:46;;;;;;;;;1.33;1.33;;;;;;;;5008996;28;45720;-72
2022/06/13 13:02:23;;;;;;;;;4.00;2.00;;;;;;;;5009780;28;45477;-72
2022/06/13 13:04:48;;;;;;;;;1.00;1.00;;;;;;;;5010578;28;46248;-72
2022/06/13 13:07:25;;;;;;;;;1.00;1.00;;;;;;;;5008113;28;45443;-72
2022/06/13 13:09:56;;;;;;;;;2.00;2.00;;;;;;;;5018497;28;45479;-72
2022/06/13 13:12:30;;;;;;;;;0.00;0.00;;;;;;;;5011303;28;45429;-72
2022/06/13 13:15:11;;;;;;;;;1.00;1.00;;;;;;;;5012753;28;46327;-72
2022/06/13 13:17:39;;;;;;;;;1.67;1.67;;;;;;;;5010408;28;45383;-72
2022/06/13 13:20:12;;;;;;;;;1.00;1.00;;;;;;;;5009878;28;45550;-72
2022/06/13 13:22:44;;;;;;;;;0.67;0.67;;;;;;;;5010418;28;45476;-72
2022/06/13 13:25:19;;;;;;;;;1.00;1.00;;;;;;;;5019718;27;46446;-72
2022/06/13 13:27:50;;;;;;;;;0.67;0.67;;;;;;;;5075200;27;45421;-72
2022/06/13 13:30:31;;;;;;;;;1.00;1.00;;;;;;;;5073586;28;45300;-71
2022/06/13 13:32:56;;;;;;;;;2.00;2.00;;;;;;;;5072608;28;45624;-71
2022/06/13 13:35:36;;;;;;;;;2.67;1.00;;;;;;;;5069255;28;45993;-72
2022/06/13 13:38:22;;;;;;;;;1.00;1.00;;;;;;;;5067533;28;45477;-72
2022/06/13 13:40:50;;;;;;;;;2.00;0.33;;;;;;;;5054660;28;45465;-71
2022/06/13 13:43:20;;;;;;;;;0.33;0.33;;;;;;;;5070166;28;45435;-72
2022/06/13 13:46:05;;;;;;;;;1.00;1.00;;;;;;;;5076839;27;47112;-72
2022/06/13 13:48:33;;;;;;;;;2.00;2.00;;;;;;;;5072463;27;45621;-72
2022/06/13 13:51:17;;;;;;;;;1.00;1.00;;;;;;;;5081463;27;45377;-72
2022/06/13 13:53:45;;;;;;;;;0.67;0.67;;;;;;;;5075519;27;45509;-71
2022/06/13 13:56:19;;;;;;;;;1.00;1.00;;;;;;;;5074907;27;47556;-72
2022/06/13 13:58:44;;;;;;;;;1.67;1.33;;;;;;;;5071573;27;45475;-72
2022/06/13 14:01:10;;;;;;;;;5.33;2.67;;;;;;;;5073699;27;45444;-72
2022/06/13 14:03:41;;;;;;;;;1.00;1.00;;;;;;;;5064385;28;45347;-72
2022/06/13 14:06:10;;;;;;;;;2.00;0.33;;;;;;;;5062298;28;46318;-72
2022/06/13 14:08:37;;;;;;;;;2.00;0.33;;;;;;;;5072455;27;45265;-72
2022/06/13 14:11:04;;;;;;;;;1.00;1.00;;;;;;;;5073199;27;45307;-72
2022/06/13 14:13:29;;;;;;;;;2.00;2.00;;;;;;;;5069671;28;45363;-72
2022/06/13 14:15:55;;;;;;;;;1.00;1.00;;;;;;;;5070693;27;46004;-72
2022/06/13 14:18:26;;;;;;;;;1.00;1.00;;;;;;;;5077418;27;45429;-70
2022/06/13 14:20:51;;;;;;;;;1.00;1.00;;;;;;;;5068048;28;45429;-71
2022/06/13 14:23:18;;;;;;;;;0.00;0.00;;;;;;;;5073501;27;46787;-72
2022/06/13 14:25:45;;;;;;;;;1.00;1.00;;;;;;;;5085246;27;45458;-72
2022/06/13 14:28:14;;;;;;;;;1.00;1.00;;;;;;;;5071974;27;45843;-72
2022/06/13 14:31:09;;;;;;;;;0.00;0.00;;;;;;;;5073858;27;45379;-72
2022/06/13 14:36:49;;;;;;;;;0.33;0.33;;;;;;;;5072930;28;45491;-71
2022/06/13 14:39:30;;;;;;;;;0.33;0.33;;;;;;;;5068637;27;45822;-72
2022/06/13 14:42:30;;;;;;;;;1.33;1.33;;;;;;;;5071024;27;45469;-72
2022/06/13 14:44:58;;;;;;;;;0.00;0.00;;;;;;;;5053537;28;45575;-72
2022/06/13 14:47:33;;;;;;;;;2.00;0.67;;;;;;;;5050673;28;46066;-71
2022/06/13 14:49:58;;;;;;;;;0.67;0.67;;;;;;;;5057329;28;45585;-72
2022/06/13 14:52:28;;;;;;;;;1.00;1.00;;;;;;;;5064877;28;45274;-72
2022/06/13 14:55:05;;;;;;;;;1.00;1.00;;;;;;;;5052158;28;45368;-71
2022/06/13 14:57:30;;;;;;;;;1.00;1.00;;;;;;;;5053312;28;46118;-72
2022/06/13 15:00:07;;;;;;;;;1.00;1.00;;;;;;;;5057422;28;46239;-71
2022/06/13 15:02:33;;;;;;;;;1.00;1.00;;;;;;;;5051446;28;45529;-71
2022/06/13 15:05:01;;;;;;;;;1.00;1.00;;;;;;;;5055140;28;45406;-72
2022/06/13 15:07:35;;;;;;;;;1.00;1.00;;;;;;;;5050996;28;46266;-71
2022/06/13 15:10:04;;;;;;;;;1.67;1.00;;;;;;;;5051575;28;45467;-72
2022/06/13 15:12:37;;;;;;;;;3.00;1.00;;;;;;;;5053148;28;45799;-72
2022/06/13 15:15:05;;;;;;;;;1.00;1.00;;;;;;;;5058288;28;45641;-72
2022/06/13 15:17:34;;;;;;;;;0.00;0.00;;;;;;;;5052067;28;45548;-72
2022/06/13 15:20:01;;;;;;;;;1.00;1.00;;;;;;;;5058957;28;45543;-72
2022/06/13 15:22:31;;;;;;;;;1.67;0.33;;;;;;;;5069263;28;45501;-72
2022/06/13 15:24:58;;;;;;;;;1.00;1.00;;;;;;;;5074083;27;45483;-72
2022/06/13 15:27:23;;;;;;;;;1.00;1.00;;;;;;;;5076872;27;46890;-72
2022/06/13 15:30:09;;;;;;;;;0.00;0.00;;;;;;;;5070005;27;45475;-72